createdAt,value
2022-07-27T00:00:21.824Z,2.33
2022-07-27T00:05:10.277Z,2.10
2022-07-27T00:09:55.615Z,2.25
2022-07-27T00:14:40.656Z,2.30
2022-07-27T00:19:26.679Z,2.50
2022-07-27T00:24:14.699Z,2.20
2022-07-27T00:29:00.080Z,2.20
2022-07-27T00:33:45.233Z,1.90
2022-07-27T00:38:30.553Z,2.20
2022-07-27T00:43:18.647Z,2.28
2022-07-27T00:48:04.231Z,2.08
2022-07-27T00:52:50.484Z,2.03
2022-07-27T00:57:58.701Z,2.20
2022-07-27T01:02:46.471Z,2.15
2022-07-27T01:07:33.782Z,2.25
2022-07-27T01:12:20.727Z,2.30
2022-07-27T01:17:05.859Z,2.60
2022-07-27T01:21:53.911Z,2.10
2022-07-27T01:26:39.558Z,2.42
2022-07-27T01:31:25.052Z,2.15
2022-07-27T01:36:10.826Z,2.03
2022-07-27T01:40:59.211Z,2.88
2022-07-27T01:45:44.309Z,2.00
2022-07-27T01:50:29.680Z,2.08
2022-07-27T01:55:15.290Z,2.40
2022-07-27T02:00:03.300Z,2.25
2022-07-27T02:04:48.524Z,2.65
2022-07-27T02:09:33.922Z,2.33
2022-07-27T02:14:21.094Z,2.45
2022-07-27T02:19:09.675Z,2.35
2022-07-27T02:23:56.335Z,2.58
2022-07-27T02:28:41.755Z,2.33
2022-07-27T02:33:26.893Z,2.45
2022-07-27T02:38:15.253Z,2.28
2022-07-27T02:43:00.560Z,2.30
2022-07-27T02:47:46.026Z,2.42
2022-07-27T02:52:31.126Z,2.00
2022-07-27T02:57:19.136Z,2.03
2022-07-27T03:02:04.290Z,2.40
2022-07-27T03:06:49.844Z,2.72
2022-07-27T03:11:35.004Z,2.33
2022-07-27T03:16:23.004Z,2.15
2022-07-27T03:21:09.205Z,2.45
2022-07-27T03:25:54.555Z,2.33
2022-07-27T03:30:39.678Z,2.17
2022-07-27T03:35:27.670Z,2.40
2022-07-27T03:40:13.264Z,2.60
2022-07-27T03:44:58.573Z,2.20
2022-07-27T03:49:43.904Z,2.65
2022-07-27T03:54:32.352Z,2.92
2022-07-27T03:59:17.452Z,2.85
2022-07-27T04:04:02.780Z,2.70
2022-07-27T04:08:47.868Z,2.72
2022-07-27T04:13:36.228Z,3.17
2022-07-27T04:18:23.329Z,2.95
2022-07-27T04:23:08.776Z,3.28
2022-07-27T04:27:54.837Z,2.90
2022-07-27T04:32:42.995Z,3.47
2022-07-27T04:37:28.334Z,3.00
2022-07-27T04:42:13.657Z,3.38
2022-07-27T04:46:58.919Z,2.92
2022-07-27T04:51:48.796Z,2.95
2022-07-27T04:56:33.863Z,2.72
2022-07-27T05:01:19.226Z,2.88
2022-07-27T05:06:04.525Z,2.45
2022-07-27T05:10:52.564Z,2.80
2022-07-27T05:15:54.786Z,2.90
2022-07-27T05:20:41.146Z,2.90
2022-07-27T05:25:26.706Z,3.75
2022-07-27T05:30:16.337Z,3.50
2022-07-27T05:35:01.464Z,3.40
2022-07-27T05:39:46.794Z,3.42
2022-07-27T05:44:31.821Z,3.25
2022-07-27T05:49:20.214Z,3.03
2022-07-27T05:54:05.284Z,3.45
2022-07-27T05:58:50.592Z,3.60
2022-07-27T06:03:35.753Z,3.08
2022-07-27T06:08:23.777Z,3.90
2022-07-27T06:13:11.682Z,3.20
2022-07-27T06:17:57.675Z,3.25
2022-07-27T06:22:51.210Z,3.53
2022-07-27T06:27:39.180Z,3.55
2022-07-27T06:32:24.296Z,3.63
2022-07-27T06:37:09.637Z,3.40
2022-07-27T06:41:58.227Z,3.83
2022-07-27T06:46:46.647Z,3.53
2022-07-27T06:51:31.789Z,3.53
2022-07-27T06:56:17.168Z,2.95
2022-07-27T07:01:03.986Z,2.90
2022-07-27T07:05:52.055Z,3.15
2022-07-27T07:10:37.133Z,2.17
2022-07-27T07:15:22.491Z,2.33
2022-07-27T07:20:09.061Z,1.77
2022-07-27T07:25:00.801Z,1.60
2022-07-27T07:29:47.932Z,1.60
2022-07-27T07:34:33.282Z,1.45
2022-07-27T07:39:18.415Z,1.98
2022-07-27T07:44:06.999Z,1.77
2022-07-27T07:48:53.271Z,1.63
2022-07-27T07:53:41.762Z,1.80
2022-07-27T07:58:27.498Z,1.20
2022-07-27T08:03:15.545Z,1.90
2022-07-27T08:08:00.886Z,1.25
2022-07-27T08:12:49.046Z,1.55
2022-07-27T08:17:34.908Z,1.50
2022-07-27T08:22:22.922Z,1.30
2022-07-27T08:27:08.128Z,1.17
2022-07-27T08:31:53.640Z,1.58
2022-07-27T08:36:38.747Z,1.35
2022-07-27T08:41:30.066Z,1.60
2022-07-27T08:46:16.048Z,1.50
2022-07-27T08:51:01.439Z,1.30
2022-07-27T08:55:48.471Z,1.83
2022-07-27T09:00:38.301Z,1.30
2022-07-27T09:05:23.953Z,1.42
2022-07-27T09:10:11.357Z,1.27
2022-07-27T09:15:07.439Z,1.40
2022-07-27T09:19:59.935Z,1.30
2022-07-27T09:25:05.178Z,1.23
2022-07-27T09:29:50.527Z,1.00
2022-07-27T09:34:37.664Z,1.30
2022-07-27T09:39:27.381Z,1.40
2022-07-27T09:44:31.995Z,1.27
2022-07-27T09:49:30.758Z,1.08
2022-07-27T09:54:17.296Z,1.20
2022-07-27T09:59:06.788Z,1.30
2022-07-27T10:03:53.135Z,1.30
2022-07-27T10:08:39.730Z,1.20
2022-07-27T10:13:25.813Z,1.13
2022-07-27T10:18:18.338Z,1.05
2022-07-27T10:23:04.160Z,1.30
2022-07-27T10:28:11.933Z,0.98
2022-07-27T10:32:57.343Z,1.05
2022-07-27T10:37:45.028Z,1.10
2022-07-27T10:42:32.716Z,1.00
2022-07-27T10:47:31.485Z,0.80
2022-07-27T10:52:46.602Z,1.00
2022-07-27T10:57:32.075Z,0.80
2022-07-27T11:02:19.066Z,1.55
2022-07-27T11:07:24.089Z,1.17
2022-07-27T11:12:14.937Z,1.40
2022-07-27T11:17:32.176Z,1.10
2022-07-27T11:22:09.079Z,1.00
2022-07-27T11:27:17.082Z,1.00
2022-07-27T11:32:03.542Z,1.20
2022-07-27T11:36:51.812Z,1.20
2022-07-27T11:42:09.105Z,1.10
2022-07-27T11:46:48.837Z,1.10
2022-07-27T11:51:34.168Z,1.20
2022-07-27T11:56:26.644Z,1.23
2022-07-27T12:01:12.792Z,1.23
2022-07-27T12:06:02.534Z,1.00
2022-07-27T12:11:00.320Z,0.90
2022-07-27T12:15:47.178Z,1.23
2022-07-27T12:20:36.759Z,0.90
2022-07-27T12:25:33.089Z,1.00
2022-07-27T12:30:20.671Z,0.60
2022-07-27T12:35:19.567Z,1.10
2022-07-27T12:40:17.208Z,0.90
2022-07-27T12:45:15.240Z,0.90
2022-07-27T12:50:08.546Z,1.17
2022-07-27T12:54:53.901Z,0.88
2022-07-27T12:59:39.070Z,0.82
2022-07-27T13:04:27.760Z,1.20
2022-07-27T13:09:13.780Z,0.70
2022-07-27T13:13:59.452Z,1.00
2022-07-27T13:18:44.536Z,0.90
2022-07-27T13:23:32.591Z,1.00
2022-07-27T13:28:17.725Z,1.05
2022-07-27T13:33:03.199Z,1.00
2022-07-27T13:37:48.753Z,0.90
2022-07-27T13:42:36.837Z,1.00
2022-07-27T13:47:21.999Z,0.82
2022-07-27T13:52:09.212Z,1.20
2022-07-27T13:56:55.690Z,1.10
2022-07-27T14:01:43.896Z,1.10
2022-07-27T14:06:29.349Z,0.95
2022-07-27T14:11:16.710Z,1.10
2022-07-27T14:16:03.187Z,0.75
2022-07-27T14:20:51.234Z,0.82
2022-07-27T14:25:36.343Z,1.38
2022-07-27T14:30:22.413Z,1.10
2022-07-27T14:35:08.757Z,1.00
2022-07-27T14:39:56.734Z,1.30
2022-07-27T14:44:42.037Z,1.08
2022-07-27T14:49:27.935Z,0.90
2022-07-27T14:54:13.186Z,0.85
2022-07-27T14:59:01.157Z,0.88
2022-07-27T15:03:46.263Z,0.80
2022-07-27T15:08:31.780Z,0.90
2022-07-27T15:13:17.962Z,1.00
2022-07-27T15:18:07.974Z,1.00
2022-07-27T15:22:53.793Z,1.08
2022-07-27T15:27:39.128Z,1.08
2022-07-27T15:32:24.287Z,0.93
2022-07-27T15:37:12.357Z,1.23
2022-07-27T15:41:57.463Z,0.90
2022-07-27T15:46:43.129Z,0.93
2022-07-27T15:51:28.556Z,0.90
2022-07-27T15:56:16.507Z,1.10
2022-07-27T16:01:01.711Z,1.02
2022-07-27T16:05:49.530Z,0.90
2022-07-27T16:10:34.575Z,1.25
2022-07-27T16:15:42.645Z,1.00
2022-07-27T16:20:28.705Z,1.02
2022-07-27T16:25:13.856Z,1.15
2022-07-27T16:29:59.248Z,1.20
2022-07-27T16:34:47.207Z,1.05
2022-07-27T16:39:33.661Z,1.40
2022-07-27T16:44:19.161Z,1.30
2022-07-27T16:49:04.555Z,1.23
2022-07-27T16:53:52.266Z,1.20
2022-07-27T16:58:38.222Z,1.40
2022-07-27T17:03:24.559Z,1.02
2022-07-27T17:08:11.225Z,1.30
2022-07-27T17:12:59.007Z,1.70
2022-07-27T17:17:44.402Z,1.48
2022-07-27T17:22:29.539Z,1.50
2022-07-27T17:27:14.905Z,1.77
2022-07-27T17:32:02.591Z,1.02
2022-07-27T17:36:50.421Z,1.58
2022-07-27T17:41:35.935Z,1.38
2022-07-27T17:46:22.081Z,1.45
2022-07-27T17:51:11.285Z,1.50
2022-07-27T17:55:57.439Z,1.67
2022-07-27T18:00:42.765Z,1.30
2022-07-27T18:05:28.518Z,1.70
2022-07-27T18:10:16.285Z,1.33
2022-07-27T18:15:14.065Z,1.20
2022-07-27T18:19:59.115Z,1.40
2022-07-27T18:24:44.564Z,1.42
2022-07-27T18:29:32.239Z,1.48
2022-07-27T18:34:18.292Z,2.08
2022-07-27T18:39:03.474Z,1.48
2022-07-27T18:43:51.354Z,1.63
2022-07-27T18:48:39.037Z,1.42
2022-07-27T18:53:24.679Z,1.80
2022-07-27T18:58:09.953Z,1.70
2022-07-27T19:02:57.936Z,1.90
2022-07-27T19:07:46.138Z,2.97
2022-07-27T19:12:31.993Z,3.08
2022-07-27T19:17:17.212Z,2.80
2022-07-27T19:22:04.344Z,2.28
2022-07-27T19:26:52.324Z,3.03
2022-07-27T19:31:38.089Z,4.28
2022-07-27T19:36:23.597Z,3.42
2022-07-27T19:41:08.949Z,2.28
2022-07-27T19:45:56.846Z,2.10
2022-07-27T19:50:42.789Z,2.88
2022-07-27T19:55:27.979Z,2.08
2022-07-27T20:00:14.953Z,1.80
2022-07-27T20:05:03.162Z,2.00
2022-07-27T20:09:48.524Z,2.20
2022-07-27T20:14:33.642Z,5.28
2022-07-27T20:19:19.056Z,3.30
2022-07-27T20:24:06.956Z,2.60
2022-07-27T20:28:53.302Z,2.40
2022-07-27T20:33:38.570Z,2.28
2022-07-27T20:38:23.902Z,2.65
2022-07-27T20:43:11.677Z,2.10
2022-07-27T20:47:57.408Z,2.10
2022-07-27T20:52:43.429Z,2.75
2022-07-27T20:57:28.811Z,2.88
2022-07-27T21:02:16.574Z,2.60
2022-07-27T21:07:01.948Z,2.50
2022-07-27T21:11:47.267Z,2.10
2022-07-27T21:16:32.683Z,2.28
2022-07-27T21:21:25.530Z,2.53
2022-07-27T21:26:15.397Z,2.80
2022-07-27T21:31:03.267Z,3.17
2022-07-27T21:35:48.568Z,3.10
2022-07-27T21:40:36.407Z,3.05
2022-07-27T21:45:21.970Z,3.00
2022-07-27T21:50:08.120Z,2.90
2022-07-27T21:54:53.584Z,2.88
2022-07-27T21:59:41.304Z,2.88
2022-07-27T22:04:26.664Z,3.05
2022-07-27T22:09:12.019Z,3.38
2022-07-27T22:13:57.091Z,3.00
2022-07-27T22:18:51.193Z,2.90
2022-07-27T22:23:36.341Z,3.22
2022-07-27T22:28:24.274Z,3.00
2022-07-27T22:33:11.627Z,3.05
2022-07-27T22:37:59.571Z,3.05
2022-07-27T22:42:44.786Z,2.83
2022-07-27T22:47:30.119Z,3.33
2022-07-27T22:52:15.277Z,3.10
2022-07-27T22:57:03.393Z,2.90
2022-07-27T23:01:48.643Z,4.00
2022-07-27T23:06:34.136Z,2.75
2022-07-27T23:11:19.285Z,3.15
2022-07-27T23:16:07.654Z,3.03
2022-07-27T23:20:52.759Z,3.35
2022-07-27T23:25:39.163Z,2.97
2022-07-27T23:30:24.527Z,2.97
2022-07-27T23:35:13.244Z,2.78
2022-07-27T23:39:58.486Z,3.30
2022-07-27T23:44:43.819Z,3.22
2022-07-27T23:49:28.937Z,3.40
2022-07-27T23:54:17.310Z,3.15
2022-07-27T23:59:02.506Z,3.60
